createdAt,value
2022-08-21T00:00:46.880Z,99.90
2022-08-21T00:03:18.289Z,99.90
2022-08-21T00:05:51.757Z,99.90
2022-08-21T00:08:22.801Z,99.90
2022-08-21T00:10:53.768Z,99.90
2022-08-21T00:13:24.779Z,99.90
2022-08-21T00:15:55.894Z,99.90
2022-08-21T00:18:27.489Z,99.90
2022-08-21T00:20:58.485Z,99.90
2022-08-21T00:23:29.395Z,99.90
2022-08-21T00:26:00.587Z,99.90
2022-08-21T00:28:31.939Z,99.90
2022-08-21T00:31:04.917Z,99.90
2022-08-21T00:33:35.901Z,99.90
2022-08-21T00:36:07.192Z,99.90
2022-08-21T00:38:38.501Z,99.90
2022-08-21T00:41:18.971Z,99.90
2022-08-21T00:44:04.748Z,99.90
2022-08-21T00:46:36.378Z,99.90
2022-08-21T00:49:09.760Z,99.90
2022-08-21T00:51:50.644Z,99.90
2022-08-21T00:54:26.143Z,99.90
2022-08-21T00:57:05.691Z,99.90
2022-08-21T00:59:39.706Z,99.90
2022-08-21T01:02:11.393Z,99.90
2022-08-21T01:04:45.945Z,99.90
2022-08-21T01:07:18.295Z,99.90
2022-08-21T01:09:50.852Z,99.90
2022-08-21T01:12:21.955Z,99.90
2022-08-21T01:14:53.146Z,99.90
2022-08-21T01:17:24.291Z,99.90
2022-08-21T01:20:00.236Z,99.90
2022-08-21T01:22:31.263Z,99.90
2022-08-21T01:25:04.605Z,99.90
2022-08-21T01:27:36.231Z,99.90
2022-08-21T01:30:23.616Z,99.90
2022-08-21T01:32:56.806Z,99.90
2022-08-21T01:35:28.017Z,99.90
2022-08-21T01:37:58.990Z,99.90
2022-08-21T01:40:30.137Z,99.90
2022-08-21T01:43:01.155Z,99.90
2022-08-21T01:45:32.205Z,99.90
2022-08-21T01:48:03.797Z,99.90
2022-08-21T01:50:35.168Z,99.90
2022-08-21T01:53:06.601Z,99.90
2022-08-21T01:55:37.546Z,99.90
2022-08-21T01:58:08.640Z,99.90
2022-08-21T02:00:39.587Z,99.90
2022-08-21T02:03:10.500Z,99.90
2022-08-21T02:05:41.421Z,99.90
2022-08-21T02:08:12.550Z,99.90
2022-08-21T02:10:43.632Z,99.90
2022-08-21T02:13:20.472Z,99.90
2022-08-21T02:15:51.461Z,99.90
2022-08-21T02:18:22.379Z,99.90
2022-08-21T02:20:56.696Z,99.90
2022-08-21T02:23:27.872Z,99.90
2022-08-21T02:26:01.021Z,99.90
2022-08-21T02:28:32.016Z,99.90
2022-08-21T02:31:04.572Z,99.90
2022-08-21T02:33:35.624Z,99.90
2022-08-21T02:36:07.802Z,99.90
2022-08-21T02:38:42.156Z,99.90
2022-08-21T02:41:21.891Z,99.90
2022-08-21T02:43:52.889Z,99.90
2022-08-21T02:46:23.907Z,99.90
2022-08-21T02:48:54.800Z,99.90
2022-08-21T02:51:26.074Z,99.90
2022-08-21T02:53:56.962Z,99.90
2022-08-21T02:56:31.516Z,99.90
2022-08-21T02:59:02.652Z,99.90
2022-08-21T03:01:33.641Z,99.90
2022-08-21T03:04:04.728Z,99.90
2022-08-21T03:06:35.610Z,99.90
2022-08-21T03:09:06.812Z,99.90
2022-08-21T03:11:37.909Z,99.90
2022-08-21T03:14:09.229Z,99.90
2022-08-21T03:16:40.128Z,99.90
2022-08-21T03:19:14.039Z,99.90
2022-08-21T03:21:44.917Z,99.90
2022-08-21T03:24:15.851Z,99.90
2022-08-21T03:26:49.662Z,99.90
2022-08-21T03:29:20.903Z,99.90
2022-08-21T03:31:53.468Z,99.90
2022-08-21T03:34:24.311Z,99.90
2022-08-21T03:36:55.181Z,99.90
2022-08-21T03:39:26.051Z,99.90
2022-08-21T03:41:56.940Z,99.90
2022-08-21T03:44:29.971Z,99.90
2022-08-21T03:47:01.643Z,99.90
2022-08-21T03:49:34.394Z,99.90
2022-08-21T03:52:05.995Z,99.90
2022-08-21T03:54:36.898Z,99.90
2022-08-21T03:57:08.684Z,99.90
2022-08-21T03:59:40.284Z,99.90
2022-08-21T04:02:11.991Z,99.90
2022-08-21T04:04:42.898Z,99.90
2022-08-21T04:07:13.741Z,99.90
2022-08-21T04:09:44.664Z,99.90
2022-08-21T04:12:15.517Z,99.90
2022-08-21T04:14:46.466Z,99.90
2022-08-21T04:17:17.711Z,99.90
2022-08-21T04:19:53.537Z,99.90
2022-08-21T04:22:24.750Z,99.90
2022-08-21T04:24:55.824Z,99.90
2022-08-21T04:27:26.676Z,99.90
2022-08-21T04:29:57.610Z,99.90
2022-08-21T04:32:28.955Z,99.90
2022-08-21T04:35:08.438Z,99.90
2022-08-21T04:37:42.307Z,99.90
2022-08-21T04:40:16.319Z,99.90
2022-08-21T04:42:57.985Z,99.90
2022-08-21T04:45:36.312Z,99.90
2022-08-21T04:48:13.857Z,99.90
2022-08-21T04:51:08.076Z,99.90
2022-08-21T04:53:49.329Z,99.90
2022-08-21T04:56:25.830Z,99.90
2022-08-21T04:59:03.899Z,99.90
2022-08-21T05:01:38.833Z,99.90
2022-08-21T05:04:15.764Z,99.90
2022-08-21T05:06:49.275Z,99.90
2022-08-21T05:09:21.651Z,99.90
2022-08-21T05:11:53.811Z,99.90
2022-08-21T05:14:26.124Z,99.90
2022-08-21T05:16:57.590Z,99.90
2022-08-21T05:19:28.647Z,99.90
2022-08-21T05:21:59.604Z,99.90
2022-08-21T05:24:30.657Z,99.90
2022-08-21T05:27:02.058Z,99.90
2022-08-21T05:29:35.420Z,99.90
2022-08-21T05:32:14.248Z,99.90
2022-08-21T05:34:46.444Z,99.90
2022-08-21T05:37:17.535Z,99.90
2022-08-21T05:40:05.217Z,99.90
2022-08-21T05:42:39.360Z,99.90
2022-08-21T05:45:10.743Z,99.90
2022-08-21T05:47:41.616Z,99.90
2022-08-21T05:50:12.763Z,99.90
2022-08-21T05:52:43.701Z,99.90
2022-08-21T05:55:14.978Z,99.90
2022-08-21T05:57:45.838Z,99.90
2022-08-21T06:00:17.636Z,99.90
2022-08-21T06:02:51.440Z,99.90
2022-08-21T06:05:36.398Z,99.90
2022-08-21T06:08:09.056Z,99.90
2022-08-21T06:10:40.346Z,99.90
2022-08-21T06:13:12.383Z,99.90
2022-08-21T06:15:43.846Z,99.90
2022-08-21T06:18:15.677Z,99.90
2022-08-21T06:20:46.673Z,99.90
2022-08-21T06:23:17.584Z,99.90
2022-08-21T06:25:48.507Z,99.90
2022-08-21T06:28:19.663Z,99.90
2022-08-21T06:30:51.016Z,99.90
2022-08-21T06:33:22.024Z,99.90
2022-08-21T06:35:52.975Z,99.90
2022-08-21T06:38:23.895Z,99.90
2022-08-21T06:40:54.869Z,99.90
2022-08-21T06:43:35.699Z,99.90
2022-08-21T06:46:10.959Z,99.90
2022-08-21T06:48:41.885Z,99.90
2022-08-21T06:51:13.063Z,99.90
2022-08-21T06:53:45.550Z,99.90
2022-08-21T06:56:16.549Z,99.90
2022-08-21T06:58:47.795Z,99.90
2022-08-21T07:01:26.678Z,99.90
2022-08-21T07:03:57.613Z,99.90
2022-08-21T07:06:28.607Z,99.90
2022-08-21T07:09:00.282Z,99.90
2022-08-21T07:11:31.344Z,99.90
2022-08-21T07:14:08.192Z,99.90
2022-08-21T07:16:39.161Z,99.90
2022-08-21T07:19:13.725Z,99.90
2022-08-21T07:21:44.771Z,99.90
2022-08-21T07:24:15.844Z,99.90
2022-08-21T07:26:46.769Z,99.90
2022-08-21T07:29:18.390Z,99.90
2022-08-21T07:31:49.527Z,99.90
2022-08-21T07:34:21.668Z,99.90
2022-08-21T07:36:53.092Z,99.90
2022-08-21T07:39:24.312Z,99.90
2022-08-21T07:41:55.281Z,99.90
2022-08-21T07:44:28.677Z,99.90
2022-08-21T07:46:59.735Z,99.90
2022-08-21T07:49:30.641Z,99.90
2022-08-21T07:52:02.254Z,99.90
2022-08-21T07:54:34.565Z,99.90
2022-08-21T07:57:05.920Z,99.90
2022-08-21T07:59:36.916Z,99.90
2022-08-21T08:02:07.855Z,99.90
2022-08-21T08:04:38.730Z,99.90
2022-08-21T08:07:21.966Z,99.90
2022-08-21T08:09:52.958Z,99.90
2022-08-21T08:12:24.038Z,99.90
2022-08-21T08:14:54.937Z,99.90
2022-08-21T08:17:26.779Z,99.90
2022-08-21T08:19:57.868Z,99.90
2022-08-21T08:22:29.079Z,99.90
2022-08-21T08:25:00.710Z,99.90
2022-08-21T08:27:31.948Z,99.90
2022-08-21T08:30:04.342Z,99.90
2022-08-21T08:32:37.452Z,99.90
2022-08-21T08:35:10.091Z,99.20
2022-08-21T08:37:42.294Z,99.10
2022-08-21T08:40:43.210Z,98.90
2022-08-21T08:43:15.052Z,98.80
2022-08-21T08:45:52.370Z,98.70
2022-08-21T08:48:53.875Z,98.20
2022-08-21T08:51:56.242Z,98.50
2022-08-21T08:57:20.365Z,98.90
2022-08-21T08:59:57.116Z,98.40
2022-08-21T09:02:31.697Z,97.50
2022-08-21T09:05:02.996Z,97.50
2022-08-21T09:08:05.362Z,97.20
2022-08-21T09:10:51.711Z,97.30
2022-08-21T09:13:55.318Z,96.30
2022-08-21T09:16:55.403Z,96.70
2022-08-21T09:19:51.064Z,96.40
2022-08-21T09:22:58.521Z,95.40
2022-08-21T09:25:47.315Z,94.80
2022-08-21T09:28:18.162Z,94.30
2022-08-21T09:30:49.944Z,94.80
2022-08-21T09:33:21.513Z,95.00
2022-08-21T09:35:58.743Z,95.20
2022-08-21T09:38:34.731Z,95.60
2022-08-21T09:41:11.363Z,95.40
2022-08-21T09:43:53.737Z,95.30
2022-08-21T09:46:27.406Z,95.10
2022-08-21T09:49:02.445Z,94.90
2022-08-21T09:51:37.845Z,94.50
2022-08-21T09:54:12.763Z,93.60
2022-08-21T09:57:18.593Z,93.90
2022-08-21T09:59:49.707Z,92.20
2022-08-21T10:02:30.447Z,93.00
2022-08-21T10:05:18.295Z,92.90
2022-08-21T10:07:49.776Z,92.30
2022-08-21T10:10:28.547Z,92.20
2022-08-21T10:13:41.154Z,92.00
2022-08-21T10:16:45.347Z,92.00
2022-08-21T10:20:01.889Z,91.50
2022-08-21T10:23:11.268Z,91.60
2022-08-21T10:25:57.060Z,90.70
2022-08-21T10:29:09.084Z,89.00
2022-08-21T10:31:45.714Z,90.10
2022-08-21T10:34:41.337Z,90.30
2022-08-21T10:37:36.293Z,90.40
2022-08-21T10:40:19.397Z,87.90
2022-08-21T10:43:02.136Z,89.50
2022-08-21T10:46:00.671Z,88.40
2022-08-21T10:49:19.274Z,88.10
2022-08-21T10:52:19.907Z,89.80
2022-08-21T10:54:57.906Z,89.00
2022-08-21T10:57:58.723Z,87.50
2022-08-21T11:00:37.482Z,86.50
2022-08-21T11:03:37.357Z,86.10
2022-08-21T11:06:17.236Z,86.30
2022-08-21T11:08:58.371Z,86.70
2022-08-21T11:11:50.167Z,84.50
2022-08-21T11:14:49.951Z,85.80
2022-08-21T11:17:33.429Z,78.80
2022-08-21T11:20:15.300Z,77.10
2022-08-21T11:23:02.995Z,71.50
2022-08-21T11:25:53.676Z,69.00
2022-08-21T11:28:52.106Z,67.00
2022-08-21T11:31:44.921Z,66.60
2022-08-21T11:34:41.570Z,66.40
2022-08-21T11:37:59.365Z,67.90
2022-08-21T11:40:56.364Z,67.10
2022-08-21T11:43:47.436Z,64.20
2022-08-21T11:46:36.201Z,66.80
2022-08-21T11:49:45.870Z,65.90
2022-08-21T11:52:33.855Z,66.40
2022-08-21T11:55:36.639Z,66.00
2022-08-21T11:58:41.141Z,68.90
2022-08-21T12:01:26.737Z,66.50
2022-08-21T12:04:05.290Z,68.80
2022-08-21T12:06:42.517Z,67.20
2022-08-21T12:09:25.614Z,68.60
2022-08-21T12:12:06.257Z,67.70
2022-08-21T12:14:49.790Z,66.60
2022-08-21T12:17:25.392Z,65.70
2022-08-21T12:20:03.405Z,65.10
2022-08-21T12:22:41.985Z,64.90
2022-08-21T12:25:21.943Z,62.90
2022-08-21T12:28:04.235Z,63.80
2022-08-21T12:30:46.519Z,64.60
2022-08-21T12:33:27.446Z,63.10
2022-08-21T12:36:22.413Z,62.60
2022-08-21T12:39:01.292Z,63.50
2022-08-21T12:42:01.782Z,63.10
2022-08-21T12:44:44.773Z,63.00
2022-08-21T12:47:31.214Z,62.50
2022-08-21T12:50:14.759Z,62.00
2022-08-21T12:53:24.304Z,62.00
2022-08-21T12:56:00.822Z,61.50
2022-08-21T12:58:32.531Z,62.60
2022-08-21T13:01:25.811Z,62.70
2022-08-21T13:04:04.349Z,62.10
2022-08-21T13:06:43.019Z,61.70
2022-08-21T13:09:23.410Z,61.90
2022-08-21T13:11:55.079Z,60.70
2022-08-21T13:14:45.087Z,59.90
2022-08-21T13:17:25.576Z,60.70
2022-08-21T13:19:59.836Z,59.40
2022-08-21T13:22:35.094Z,60.20
2022-08-21T13:25:15.118Z,60.20
2022-08-21T13:27:59.137Z,59.70
2022-08-21T13:30:31.655Z,60.30
2022-08-21T13:33:12.301Z,59.20
2022-08-21T13:35:51.517Z,59.80
2022-08-21T13:38:27.490Z,59.00
2022-08-21T13:41:09.480Z,59.50
2022-08-21T13:43:49.875Z,58.80
2022-08-21T13:46:25.661Z,59.10
2022-08-21T13:48:57.510Z,59.20
2022-08-21T13:51:28.780Z,59.90
2022-08-21T13:54:00.123Z,59.40
2022-08-21T13:56:43.328Z,58.70
2022-08-21T13:59:36.701Z,59.20
2022-08-21T14:02:24.876Z,58.00
2022-08-21T14:05:00.337Z,57.30
2022-08-21T14:07:36.618Z,57.30
2022-08-21T14:10:20.435Z,56.90
2022-08-21T14:12:55.571Z,56.80
2022-08-21T14:15:31.443Z,57.00
2022-08-21T14:18:20.883Z,57.20
2022-08-21T14:20:52.189Z,56.90
2022-08-21T14:23:28.409Z,57.10
2022-08-21T14:26:06.269Z,56.50
2022-08-21T14:28:42.704Z,56.20
2022-08-21T14:31:18.138Z,55.80
2022-08-21T14:33:50.655Z,56.00
2022-08-21T14:36:21.599Z,56.20
2022-08-21T14:38:53.127Z,55.60
2022-08-21T14:41:28.694Z,56.00
2022-08-21T14:44:09.275Z,55.80
2022-08-21T14:46:43.995Z,54.50
2022-08-21T14:49:29.767Z,55.50
2022-08-21T14:52:00.822Z,55.40
2022-08-21T14:54:33.916Z,55.50
2022-08-21T14:57:10.166Z,55.60
2022-08-21T14:59:41.429Z,55.80
2022-08-21T15:02:12.869Z,55.20
2022-08-21T15:04:45.257Z,54.20
2022-08-21T15:07:18.191Z,54.30
2022-08-21T15:09:49.547Z,54.20
2022-08-21T15:12:20.990Z,54.10
2022-08-21T15:14:52.841Z,54.10
2022-08-21T15:17:24.327Z,53.40
2022-08-21T15:19:55.657Z,53.20
2022-08-21T15:22:27.911Z,53.40
2022-08-21T15:24:59.681Z,53.20
2022-08-21T15:27:31.131Z,53.60
2022-08-21T15:30:05.116Z,53.20
2022-08-21T15:32:36.033Z,53.50
2022-08-21T15:35:08.029Z,53.50
2022-08-21T15:37:39.085Z,53.50
2022-08-21T15:40:11.800Z,53.50
2022-08-21T15:42:44.808Z,53.10
2022-08-21T15:45:16.352Z,52.30
2022-08-21T15:47:50.456Z,51.50
2022-08-21T15:50:22.073Z,52.20
2022-08-21T15:52:53.495Z,52.70
2022-08-21T15:55:26.437Z,52.10
2022-08-21T15:57:59.200Z,52.00
2022-08-21T16:00:35.813Z,52.10
2022-08-21T16:03:08.102Z,52.20
2022-08-21T16:05:39.117Z,52.10
2022-08-21T16:08:11.823Z,52.30
2022-08-21T16:10:43.986Z,52.30
2022-08-21T16:13:26.074Z,51.90
2022-08-21T16:15:57.513Z,52.20
2022-08-21T16:18:28.972Z,51.60
2022-08-21T16:21:00.170Z,52.30
2022-08-21T16:23:31.632Z,51.80
2022-08-21T16:26:07.719Z,51.70
2022-08-21T16:28:44.117Z,51.80
2022-08-21T16:31:15.734Z,51.00
2022-08-21T16:33:57.281Z,52.00
2022-08-21T16:36:29.370Z,51.80
2022-08-21T16:39:01.381Z,51.80
2022-08-21T16:41:36.469Z,51.60
2022-08-21T16:44:08.186Z,51.50
2022-08-21T16:46:43.229Z,51.20
2022-08-21T16:49:14.671Z,51.70
2022-08-21T16:51:46.035Z,51.60
2022-08-21T16:54:17.331Z,51.70
2022-08-21T16:56:48.632Z,50.10
2022-08-21T16:59:20.121Z,51.80
2022-08-21T17:01:54.365Z,51.90
2022-08-21T17:04:28.055Z,51.90
2022-08-21T17:06:59.195Z,51.70
2022-08-21T17:09:30.338Z,51.80
2022-08-21T17:12:01.543Z,52.20
2022-08-21T17:14:33.084Z,52.40
2022-08-21T17:17:07.793Z,52.50
2022-08-21T17:19:39.477Z,52.60
2022-08-21T17:22:11.526Z,52.30
2022-08-21T17:24:42.859Z,52.80
2022-08-21T17:27:14.077Z,53.00
2022-08-21T17:29:45.478Z,53.40
2022-08-21T17:32:18.861Z,53.50
2022-08-21T17:34:50.402Z,54.80
2022-08-21T17:37:23.069Z,54.90
2022-08-21T17:39:55.482Z,54.90
2022-08-21T17:42:27.291Z,55.20
2022-08-21T17:44:59.203Z,56.10
2022-08-21T17:47:30.771Z,56.20
2022-08-21T17:50:02.097Z,56.60
2022-08-21T17:52:34.318Z,57.60
2022-08-21T17:55:06.617Z,58.10
2022-08-21T17:57:39.604Z,58.00
2022-08-21T18:00:14.950Z,58.70
2022-08-21T18:02:51.269Z,59.60
2022-08-21T18:05:22.422Z,59.50
2022-08-21T18:07:54.559Z,59.90
2022-08-21T18:10:25.993Z,60.60
2022-08-21T18:12:58.515Z,61.50
2022-08-21T18:15:31.371Z,61.30
2022-08-21T18:18:03.837Z,62.10
2022-08-21T18:20:34.897Z,62.40
2022-08-21T18:23:05.823Z,63.40
2022-08-21T18:25:37.268Z,62.70
2022-08-21T18:28:08.688Z,63.70
2022-08-21T18:30:43.105Z,64.70
2022-08-21T18:33:15.332Z,65.40
2022-08-21T18:35:46.485Z,65.90
2022-08-21T18:38:21.247Z,67.60
2022-08-21T18:40:56.097Z,68.20
2022-08-21T18:43:27.908Z,68.90
2022-08-21T18:45:59.037Z,69.30
2022-08-21T18:48:30.210Z,69.90
2022-08-21T18:51:01.484Z,70.00
2022-08-21T18:53:32.759Z,70.20
2022-08-21T18:56:06.170Z,70.50
2022-08-21T18:58:37.848Z,71.40
2022-08-21T19:01:09.041Z,71.70
2022-08-21T19:03:40.712Z,72.30
2022-08-21T19:06:11.936Z,72.80
2022-08-21T19:08:43.222Z,73.30
2022-08-21T19:11:14.502Z,74.60
2022-08-21T19:13:55.044Z,75.10
2022-08-21T19:16:26.224Z,74.70
2022-08-21T19:21:49.529Z,76.30
2022-08-21T19:27:14.471Z,77.30
2022-08-21T19:29:45.859Z,77.00
2022-08-21T19:32:16.832Z,76.40
2022-08-21T19:34:50.019Z,80.60
2022-08-21T19:37:22.225Z,79.00
2022-08-21T19:39:53.825Z,77.00
2022-08-21T19:42:28.694Z,76.20
2022-08-21T19:45:16.096Z,77.10
2022-08-21T19:47:50.893Z,77.40
2022-08-21T19:50:22.054Z,78.00
2022-08-21T19:52:53.080Z,78.00
2022-08-21T19:55:24.890Z,78.40
2022-08-21T19:57:56.073Z,77.40
2022-08-21T20:00:27.068Z,78.60
2022-08-21T20:02:58.107Z,79.50
2022-08-21T20:05:39.577Z,79.50
2022-08-21T20:08:20.344Z,79.60
2022-08-21T20:10:52.859Z,80.10
2022-08-21T20:13:24.467Z,80.80
2022-08-21T20:15:55.510Z,81.90
2022-08-21T20:18:27.191Z,82.60
2022-08-21T20:20:58.175Z,82.80
2022-08-21T20:26:20.415Z,83.80
2022-08-21T20:28:51.734Z,84.60
2022-08-21T20:31:24.641Z,85.70
2022-08-21T20:33:59.469Z,86.40
2022-08-21T20:36:30.635Z,86.10
2022-08-21T20:39:01.551Z,84.00
2022-08-21T20:41:33.397Z,84.50
2022-08-21T20:44:05.371Z,84.70
2022-08-21T20:46:36.409Z,85.00
2022-08-21T20:49:09.342Z,85.90
2022-08-21T20:51:49.482Z,86.90
2022-08-21T20:54:44.857Z,87.40
2022-08-21T20:57:27.345Z,87.50
2022-08-21T21:00:14.555Z,88.30
2022-08-21T21:03:13.238Z,88.80
2022-08-21T21:05:59.558Z,88.80
2022-08-21T21:08:58.774Z,90.80
2022-08-21T21:11:38.195Z,89.90
2022-08-21T21:14:23.437Z,89.50
2022-08-21T21:17:01.436Z,90.10
2022-08-21T21:19:44.751Z,87.80
2022-08-21T21:22:38.277Z,88.10
2022-08-21T21:25:39.781Z,88.70
2022-08-21T21:28:53.886Z,89.70
2022-08-21T21:31:28.579Z,89.90
2022-08-21T21:34:00.668Z,90.20
2022-08-21T21:36:56.475Z,90.40
2022-08-21T21:39:52.978Z,90.70
2022-08-21T21:42:49.321Z,91.10
2022-08-21T21:45:32.089Z,91.10
2022-08-21T21:48:21.494Z,91.30
2022-08-21T21:53:51.927Z,91.70
2022-08-21T21:56:34.009Z,92.20
2022-08-21T21:59:35.937Z,92.40
2022-08-21T22:02:25.188Z,92.50
2022-08-21T22:05:14.542Z,92.70
2022-08-21T22:07:57.941Z,93.10
2022-08-21T22:10:43.841Z,93.30
2022-08-21T22:14:05.242Z,93.60
2022-08-21T22:16:37.193Z,93.60
2022-08-21T22:19:31.426Z,93.80
2022-08-21T22:22:13.768Z,93.70
2022-08-21T22:24:49.679Z,94.00
2022-08-21T22:27:34.021Z,94.10
2022-08-21T22:30:16.126Z,94.40
2022-08-21T22:32:56.760Z,94.60
2022-08-21T22:35:32.967Z,94.90
2022-08-21T22:38:36.230Z,95.10
2022-08-21T22:41:28.640Z,95.40
2022-08-21T22:44:04.459Z,95.60
2022-08-21T22:46:58.993Z,95.90
2022-08-21T22:49:30.245Z,96.30
2022-08-21T22:52:47.743Z,96.50
2022-08-21T22:55:38.606Z,96.60
2022-08-21T22:58:22.264Z,97.10
2022-08-21T23:01:23.548Z,97.20
2022-08-21T23:03:57.940Z,97.60
2022-08-21T23:06:52.605Z,97.70
2022-08-21T23:09:53.167Z,97.70
2022-08-21T23:15:23.238Z,98.50
2022-08-21T23:18:00.936Z,98.30
2022-08-21T23:21:19.228Z,98.50
2022-08-21T23:24:29.926Z,98.50
2022-08-21T23:27:41.521Z,98.30
2022-08-21T23:30:22.487Z,98.10
2022-08-21T23:33:15.280Z,98.60
2022-08-21T23:36:48.174Z,98.90
2022-08-21T23:39:46.236Z,98.60
2022-08-21T23:42:53.125Z,98.40
2022-08-21T23:45:49.105Z,99.00
2022-08-21T23:48:47.121Z,99.40
2022-08-21T23:51:41.256Z,99.90
2022-08-21T23:54:58.581Z,99.90
2022-08-21T23:58:07.662Z,99.90
